Time;durP1;ratioP1;P1;durP2;ratioP2;P2;SDS_P1;SDS_P2;PMS_P1;PMS_P2;Temp;Humidity;BMP_temperature;BMP_pressure;BME280_temperature;BME280_humidity;BME280_pressure;Samples;Min_cycle;Max_cycle;Signal;HPM_P1;HPM_P2
2023/08/07 02:08:00;;;;;;;11.38;7.30;;;;;;;;;;5047389;27;20921;-65
2023/08/07 02:10:28;;;;;;;11.13;6.85;;;;;;;;;;5031133;28;20087;-65
2023/08/07 02:12:54;;;;;;;9.63;6.60;;;;;;;;;;5032298;28;20037;-66
2023/08/07 02:15:21;;;;;;;12.18;7.07;;;;;;;;;;5032622;28;20149;-64
2023/08/07 02:17:47;;;;;;;13.60;6.82;;;;;;;;;;5028366;28;20041;-66
2023/08/07 02:20:14;;;;;;;11.95;7.00;;;;;;;;;;5028415;28;21750;-64
2023/08/07 02:22:41;;;;;;;11.10;7.00;;;;;;;;;;5029180;28;20033;-65
2023/08/07 02:25:07;;;;;;;11.70;7.13;;;;;;;;;;5035728;28;20029;-62
2023/08/07 02:27:34;;;;;;;9.07;6.32;;;;;;;;;;5029412;28;20041;-61
2023/08/07 02:30:03;;;;;;;10.80;5.97;;;;;;;;;;5025883;28;20060;-64
2023/08/07 02:32:30;;;;;;;10.35;5.75;;;;;;;;;;5025099;28;20957;-64
2023/08/07 02:34:57;;;;;;;9.55;5.82;;;;;;;;;;5025853;28;20048;-63
2023/08/07 02:37:23;;;;;;;8.40;5.40;;;;;;;;;;5044387;28;20028;-64
2023/08/07 02:39:50;;;;;;;9.93;5.85;;;;;;;;;;5034198;28;20057;-67
2023/08/07 02:42:16;;;;;;;11.27;5.75;;;;;;;;;;5025117;28;20041;-61
2023/08/07 02:44:43;;;;;;;12.50;5.82;;;;;;;;;;5024824;28;20045;-64
2023/08/07 02:47:10;;;;;;;9.35;5.53;;;;;;;;;;5025205;28;20064;-64
2023/08/07 02:49:36;;;;;;;7.80;5.22;;;;;;;;;;5024692;28;20033;-63
2023/08/07 02:52:03;;;;;;;11.00;6.65;;;;;;;;;;5023353;28;20041;-63
2023/08/07 02:54:30;;;;;;;8.80;5.82;;;;;;;;;;5024264;28;20029;-64
2023/08/07 02:56:57;;;;;;;8.98;5.22;;;;;;;;;;5025674;28;20129;-63
2023/08/07 02:59:23;;;;;;;10.02;5.68;;;;;;;;;;5025242;28;20448;-61
2023/08/07 03:01:50;;;;;;;9.95;5.97;;;;;;;;;;5026836;28;20045;-60
2023/08/07 03:04:17;;;;;;;10.70;6.05;;;;;;;;;;5025818;28;20391;-64
2023/08/07 03:06:44;;;;;;;10.20;5.72;;;;;;;;;;5033484;28;20140;-63
2023/08/07 03:09:10;;;;;;;9.32;6.05;;;;;;;;;;5026469;28;20643;-63
2023/08/07 03:11:37;;;;;;;11.65;6.25;;;;;;;;;;5034797;28;20040;-57
2023/08/07 03:14:04;;;;;;;11.98;6.22;;;;;;;;;;5026586;28;20398;-59
2023/08/07 03:16:30;;;;;;;11.75;5.85;;;;;;;;;;5034185;28;20044;-60
2023/08/07 03:18:57;;;;;;;12.25;6.22;;;;;;;;;;5015029;28;20045;-62
2023/08/07 03:21:23;;;;;;;14.35;6.15;;;;;;;;;;5010235;28;20046;-63
2023/08/07 03:23:51;;;;;;;10.27;6.00;;;;;;;;;;5011698;28;20061;-64
2023/08/07 03:26:18;;;;;;;12.27;6.40;;;;;;;;;;5014175;28;20152;-63
2023/08/07 03:28:46;;;;;;;11.55;6.28;;;;;;;;;;5009774;28;20176;-64
2023/08/07 03:31:13;;;;;;;10.07;6.20;;;;;;;;;;5012277;28;20441;-63
2023/08/07 03:33:40;;;;;;;10.52;6.40;;;;;;;;;;5013397;28;20090;-62
2023/08/07 03:36:06;;;;;;;12.15;6.53;;;;;;;;;;5011651;28;20045;-63
2023/08/07 03:38:33;;;;;;;10.43;6.22;;;;;;;;;;5012037;28;22725;-63
2023/08/07 03:41:00;;;;;;;13.48;5.95;;;;;;;;;;5011442;28;20061;-63
2023/08/07 03:43:26;;;;;;;10.38;6.28;;;;;;;;;;5011844;28;20033;-64
2023/08/07 03:45:56;;;;;;;10.80;6.60;;;;;;;;;;5019555;28;20049;-64
2023/08/07 03:48:23;;;;;;;10.15;6.25;;;;;;;;;;5008762;28;20056;-63
2023/08/07 03:50:50;;;;;;;10.68;6.22;;;;;;;;;;5011984;28;20103;-64
2023/08/07 03:53:16;;;;;;;9.32;6.05;;;;;;;;;;5024666;28;20049;-63
2023/08/07 03:55:45;;;;;;;12.40;6.30;;;;;;;;;;5031992;28;20052;-63
2023/08/07 03:58:11;;;;;;;10.77;5.57;;;;;;;;;;5033897;28;20069;-62
2023/08/07 04:00:38;;;;;;;13.00;5.78;;;;;;;;;;5033446;28;20048;-64
2023/08/07 04:03:04;;;;;;;8.50;5.15;;;;;;;;;;5035967;28;20045;-63
2023/08/07 04:05:33;;;;;;;8.65;5.53;;;;;;;;;;5032584;28;20121;-62
2023/08/07 04:08:00;;;;;;;11.10;5.72;;;;;;;;;;5031895;28;20513;-62
2023/08/07 04:10:26;;;;;;;10.65;5.88;;;;;;;;;;5031755;28;20105;-62
2023/08/07 04:12:53;;;;;;;9.50;5.75;;;;;;;;;;5034614;28;20377;-62
2023/08/07 04:15:20;;;;;;;10.02;5.78;;;;;;;;;;5032678;28;20067;-62
2023/08/07 04:17:46;;;;;;;8.57;5.03;;;;;;;;;;5030845;28;20043;-63
2023/08/07 04:20:13;;;;;;;9.45;5.63;;;;;;;;;;5030657;28;20044;-63
2023/08/07 04:22:39;;;;;;;9.50;5.45;;;;;;;;;;5028050;28;20072;-63
2023/08/07 04:25:06;;;;;;;8.90;5.43;;;;;;;;;;5030278;28;20717;-62
2023/08/07 04:27:33;;;;;;;11.73;5.28;;;;;;;;;;5029908;28;20195;-63
2023/08/07 04:29:59;;;;;;;9.23;4.95;;;;;;;;;;5031629;28;20131;-63
2023/08/07 04:32:26;;;;;;;9.95;5.43;;;;;;;;;;5026460;28;20037;-61
2023/08/07 04:34:53;;;;;;;9.25;5.78;;;;;;;;;;5029882;28;20576;-63
2023/08/07 04:37:19;;;;;;;8.75;5.43;;;;;;;;;;5028391;28;21190;-63
2023/08/07 04:39:46;;;;;;;9.40;5.43;;;;;;;;;;5030648;28;20134;-63
2023/08/07 04:42:13;;;;;;;10.35;5.32;;;;;;;;;;5029966;28;20207;-63
2023/08/07 04:44:39;;;;;;;9.43;5.60;;;;;;;;;;5029404;28;20111;-64
2023/08/07 04:47:06;;;;;;;12.57;5.35;;;;;;;;;;5032597;28;20053;-63
2023/08/07 04:49:33;;;;;;;11.60;6.18;;;;;;;;;;5032754;28;20048;-64
2023/08/07 04:51:59;;;;;;;10.18;5.80;;;;;;;;;;5035369;28;20080;-64
2023/08/07 04:54:26;;;;;;;9.15;5.32;;;;;;;;;;5032644;28;20048;-63
2023/08/07 04:56:53;;;;;;;8.73;5.15;;;;;;;;;;5031911;28;20049;-63
2023/08/07 04:59:20;;;;;;;13.57;5.80;;;;;;;;;;5031787;28;20063;-63
2023/08/07 05:01:46;;;;;;;9.68;5.28;;;;;;;;;;5009050;28;20040;-63
2023/08/07 05:04:13;;;;;;;11.02;5.00;;;;;;;;;;5010078;28;20065;-64
2023/08/07 05:06:40;;;;;;;9.77;5.40;;;;;;;;;;5004722;28;20562;-64
2023/08/07 05:09:06;;;;;;;10.23;5.70;;;;;;;;;;5006171;28;20042;-64
2023/08/07 05:11:33;;;;;;;13.02;5.85;;;;;;;;;;5026813;28;20128;-64
2023/08/07 05:14:00;;;;;;;10.90;5.90;;;;;;;;;;5030373;28;20041;-64
2023/08/07 05:16:26;;;;;;;10.00;5.25;;;;;;;;;;5028458;28;20044;-64
2023/08/07 05:18:53;;;;;;;9.95;5.35;;;;;;;;;;5031174;28;20053;-63
2023/08/07 05:21:20;;;;;;;11.15;6.03;;;;;;;;;;5030207;28;20052;-64
2023/08/07 05:23:47;;;;;;;9.45;5.47;;;;;;;;;;5031954;28;20044;-64
2023/08/07 05:26:14;;;;;;;8.65;5.13;;;;;;;;;;5031703;28;20087;-63
2023/08/07 05:28:40;;;;;;;9.32;5.18;;;;;;;;;;5031399;28;20064;-64
2023/08/07 05:31:07;;;;;;;10.73;6.03;;;;;;;;;;5032923;28;20037;-65
2023/08/07 05:33:34;;;;;;;10.27;5.25;;;;;;;;;;5031413;28;20045;-62
2023/08/07 05:36:00;;;;;;;9.05;5.85;;;;;;;;;;5033904;28;20118;-63
2023/08/07 05:38:27;;;;;;;9.20;5.60;;;;;;;;;;5032332;28;21117;-63
2023/08/07 05:40:53;;;;;;;8.82;5.38;;;;;;;;;;5035376;28;20044;-62
2023/08/07 05:43:20;;;;;;;8.77;5.25;;;;;;;;;;5034230;28;20040;-63
2023/08/07 05:45:48;;;;;;;9.88;5.80;;;;;;;;;;5033942;28;20045;-63
2023/08/07 05:48:16;;;;;;;9.80;5.50;;;;;;;;;;5032713;28;20033;-62
2023/08/07 05:50:43;;;;;;;10.00;5.65;;;;;;;;;;5032119;28;20040;-63
2023/08/07 05:53:09;;;;;;;10.05;5.95;;;;;;;;;;5031419;28;20047;-62
2023/08/07 05:55:36;;;;;;;10.43;6.07;;;;;;;;;;5031436;28;20036;-62
2023/08/07 05:58:02;;;;;;;10.00;5.68;;;;;;;;;;5029699;28;20049;-62
2023/08/07 06:00:29;;;;;;;10.55;6.07;;;;;;;;;;5029905;28;20291;-64
2023/08/07 06:02:56;;;;;;;9.55;5.60;;;;;;;;;;5034550;28;20164;-62
2023/08/07 06:05:23;;;;;;;10.05;5.75;;;;;;;;;;5042793;28;20708;-65
2023/08/07 06:07:50;;;;;;;10.80;5.68;;;;;;;;;;5039148;28;20113;-61
2023/08/07 06:10:16;;;;;;;19.02;6.45;;;;;;;;;;5041652;28;20056;-60
2023/08/07 06:12:43;;;;;;;10.38;6.20;;;;;;;;;;5042000;28;20075;-63
2023/08/07 06:15:10;;;;;;;13.27;6.28;;;;;;;;;;5041210;28;20406;-64
2023/08/07 06:17:39;;;;;;;10.48;5.55;;;;;;;;;;5038899;28;20087;-62
2023/08/07 06:20:08;;;;;;;12.05;6.18;;;;;;;;;;5043670;28;20033;-61
2023/08/07 06:22:35;;;;;;;13.85;6.18;;;;;;;;;;5039594;28;20052;-62
2023/08/07 06:25:02;;;;;;;14.38;6.65;;;;;;;;;;5042273;28;20071;-63
2023/08/07 06:27:30;;;;;;;10.18;6.07;;;;;;;;;;5039768;28;20131;-63
2023/08/07 06:29:57;;;;;;;11.35;6.70;;;;;;;;;;5031966;28;20075;-62
2023/08/07 06:32:23;;;;;;;12.57;6.55;;;;;;;;;;5056272;28;20098;-64
2023/08/07 06:34:50;;;;;;;12.13;6.22;;;;;;;;;;5042453;28;20080;-63
2023/08/07 06:37:16;;;;;;;11.20;6.78;;;;;;;;;;5039763;28;20036;-63
2023/08/07 06:39:43;;;;;;;13.27;6.63;;;;;;;;;;5042420;28;20102;-62
2023/08/07 06:42:10;;;;;;;12.40;7.05;;;;;;;;;;5043940;28;20164;-63
2023/08/07 06:44:36;;;;;;;12.10;6.93;;;;;;;;;;5056410;28;20043;-63
2023/08/07 06:47:03;;;;;;;11.82;6.63;;;;;;;;;;5056218;28;20107;-64
2023/08/07 06:49:33;;;;;;;14.13;6.93;;;;;;;;;;5042889;28;20041;-63
2023/08/07 06:51:59;;;;;;;13.90;6.53;;;;;;;;;;5040839;28;20041;-63
2023/08/07 06:54:26;;;;;;;15.48;6.47;;;;;;;;;;5059089;28;20373;-62
2023/08/07 06:56:52;;;;;;;12.55;6.90;;;;;;;;;;5039691;28;20136;-63
2023/08/07 06:59:19;;;;;;;11.82;6.68;;;;;;;;;;5052812;28;20071;-64
2023/08/07 07:01:46;;;;;;;13.73;7.20;;;;;;;;;;5042633;28;20037;-62
2023/08/07 07:04:12;;;;;;;12.52;6.75;;;;;;;;;;5044996;28;20572;-63
2023/08/07 07:06:39;;;;;;;12.45;6.95;;;;;;;;;;5042094;28;20056;-63
2023/08/07 07:09:06;;;;;;;14.50;7.00;;;;;;;;;;5042584;28;20543;-64
2023/08/07 07:11:34;;;;;;;11.07;6.60;;;;;;;;;;5041734;28;20176;-64
2023/08/07 07:14:02;;;;;;;10.25;6.55;;;;;;;;;;5042037;28;20102;-63
2023/08/07 07:16:28;;;;;;;13.52;6.90;;;;;;;;;;5041984;28;20057;-64
2023/08/07 07:18:58;;;;;;;11.15;6.70;;;;;;;;;;5043243;28;20526;-63
2023/08/07 07:21:24;;;;;;;11.70;6.70;;;;;;;;;;5041789;28;22219;-64
2023/08/07 07:23:51;;;;;;;13.07;6.97;;;;;;;;;;5042696;28;20483;-62
2023/08/07 07:26:17;;;;;;;11.60;6.90;;;;;;;;;;5042010;28;20099;-63
2023/08/07 07:28:45;;;;;;;13.05;7.32;;;;;;;;;;5041290;28;20033;-63
2023/08/07 07:31:11;;;;;;;10.85;6.72;;;;;;;;;;5045019;28;20036;-64
2023/08/07 07:33:39;;;;;;;14.52;7.03;;;;;;;;;;5042439;28;20043;-63
2023/08/07 07:36:06;;;;;;;11.68;6.78;;;;;;;;;;5042168;28;20037;-64
2023/08/07 07:38:33;;;;;;;12.98;6.53;;;;;;;;;;5041311;28;20100;-64
2023/08/07 07:40:59;;;;;;;15.05;6.45;;;;;;;;;;5041958;28;20069;-64
2023/08/07 07:43:26;;;;;;;10.43;6.00;;;;;;;;;;5040804;28;20037;-63
2023/08/07 07:45:53;;;;;;;11.55;6.85;;;;;;;;;;5043131;28;20260;-64
2023/08/07 07:48:19;;;;;;;13.07;6.50;;;;;;;;;;5040777;28;20052;-64
2023/08/07 07:50:46;;;;;;;12.27;6.63;;;;;;;;;;5057392;28;20098;-64
2023/08/07 07:53:12;;;;;;;12.75;5.95;;;;;;;;;;5043493;28;20751;-66
2023/08/07 07:55:39;;;;;;;13.63;6.85;;;;;;;;;;5057248;28;20037;-63
2023/08/07 07:58:06;;;;;;;10.35;6.10;;;;;;;;;;5041328;28;20110;-64
2023/08/07 08:00:32;;;;;;;10.15;6.15;;;;;;;;;;5040460;28;20627;-64
2023/08/07 08:02:59;;;;;;;12.48;6.25;;;;;;;;;;5041183;28;20029;-64
2023/08/07 08:05:26;;;;;;;11.90;6.70;;;;;;;;;;5040874;28;20040;-63
2023/08/07 08:07:52;;;;;;;10.07;6.22;;;;;;;;;;5040964;28;20520;-63
2023/08/07 08:10:19;;;;;;;10.98;6.75;;;;;;;;;;5041999;28;20078;-64
2023/08/07 08:12:47;;;;;;;10.77;6.50;;;;;;;;;;5041558;28;20037;-63
2023/08/07 08:15:13;;;;;;;12.27;6.57;;;;;;;;;;5039530;28;20037;-63
2023/08/07 08:17:40;;;;;;;11.55;6.40;;;;;;;;;;5039587;28;20497;-62
2023/08/07 08:20:07;;;;;;;11.55;6.28;;;;;;;;;;5043414;28;20123;-62
2023/08/07 08:22:34;;;;;;;10.52;6.07;;;;;;;;;;5040450;28;20048;-63
2023/08/07 08:25:01;;;;;;;12.88;7.07;;;;;;;;;;5041181;28;20061;-64
2023/08/07 08:27:28;;;;;;;11.50;6.63;;;;;;;;;;5039870;28;20134;-63
2023/08/07 08:29:54;;;;;;;11.80;6.43;;;;;;;;;;5036174;28;20059;-62
2023/08/07 08:32:21;;;;;;;12.98;6.95;;;;;;;;;;5041033;28;20723;-64
2023/08/07 08:34:49;;;;;;;15.50;6.95;;;;;;;;;;5017941;28;20112;-63
2023/08/07 08:37:34;;;;;;;13.65;7.85;;;;;;;;;;5023116;28;20079;-63
2023/08/07 08:40:01;;;;;;;11.48;6.38;;;;;;;;;;5020817;28;20067;-63
2023/08/07 08:42:27;;;;;;;13.25;7.03;;;;;;;;;;5028809;28;20037;-63
2023/08/07 08:44:55;;;;;;;11.77;7.47;;;;;;;;;;5023999;28;20053;-64
2023/08/07 08:47:26;;;;;;;11.68;6.88;;;;;;;;;;5021897;28;20052;-65
2023/08/07 08:50:09;;;;;;;12.18;6.97;;;;;;;;;;5031820;28;20048;-63
2023/08/07 08:52:43;;;;;;;11.77;7.15;;;;;;;;;;5023855;28;20890;-65
2023/08/07 08:55:11;;;;;;;12.40;6.72;;;;;;;;;;5021089;28;20080;-64
2023/08/07 08:57:40;;;;;;;12.10;7.00;;;;;;;;;;5022939;28;20041;-62
2023/08/07 09:00:15;;;;;;;11.80;6.75;;;;;;;;;;5009859;28;20047;-62
2023/08/07 09:02:43;;;;;;;13.25;6.97;;;;;;;;;;5021981;28;20052;-64
2023/08/07 09:05:09;;;;;;;11.20;6.78;;;;;;;;;;5024098;28;20037;-61
2023/08/07 09:07:36;;;;;;;11.25;6.90;;;;;;;;;;5022065;28;20045;-60
2023/08/07 09:10:03;;;;;;;17.30;7.55;;;;;;;;;;5023638;28;20512;-63
2023/08/07 09:12:30;;;;;;;12.30;6.85;;;;;;;;;;5023366;28;20049;-63
2023/08/07 09:14:58;;;;;;;10.10;6.47;;;;;;;;;;5022146;28;21640;-62
2023/08/07 09:17:27;;;;;;;10.75;7.00;;;;;;;;;;5006503;28;20139;-61
2023/08/07 09:19:54;;;;;;;12.63;7.15;;;;;;;;;;5016802;28;20045;-62
2023/08/07 09:22:21;;;;;;;11.20;6.53;;;;;;;;;;5017159;28;20121;-63
2023/08/07 09:24:47;;;;;;;11.35;6.63;;;;;;;;;;5015905;28;20121;-63
2023/08/07 09:27:14;;;;;;;13.32;6.85;;;;;;;;;;5016172;28;20162;-62
2023/08/07 09:29:41;;;;;;;11.18;6.88;;;;;;;;;;5014333;28;20045;-62
2023/08/07 09:32:08;;;;;;;11.98;6.97;;;;;;;;;;5016980;28;20782;-64
2023/08/07 09:34:35;;;;;;;11.82;7.15;;;;;;;;;;5004853;28;20045;-63
2023/08/07 09:37:02;;;;;;;16.35;6.72;;;;;;;;;;5015761;28;20120;-64
2023/08/07 09:39:30;;;;;;;14.68;7.53;;;;;;;;;;5014495;28;20380;-64
2023/08/07 09:41:58;;;;;;;12.15;7.50;;;;;;;;;;5016909;28;20033;-64
2023/08/07 09:44:46;;;;;;;13.18;7.63;;;;;;;;;;5025555;28;20155;-63
2023/08/07 09:47:16;;;;;;;12.82;7.20;;;;;;;;;;5027000;28;20251;-61
2023/08/07 09:49:44;;;;;;;14.68;6.95;;;;;;;;;;5025428;28;20685;-62
2023/08/07 09:52:15;;;;;;;12.52;7.20;;;;;;;;;;5042590;28;20044;-63
2023/08/07 09:55:03;;;;;;;13.73;7.90;;;;;;;;;;5047201;28;20033;-62
2023/08/07 09:57:30;;;;;;;13.85;7.30;;;;;;;;;;5039307;28;20045;-62
2023/08/07 09:59:57;;;;;;;18.27;7.85;;;;;;;;;;5039529;28;20049;-63
2023/08/07 10:02:24;;;;;;;12.05;7.20;;;;;;;;;;5038265;28;20391;-64
2023/08/07 10:04:51;;;;;;;14.82;7.03;;;;;;;;;;5037808;28;20069;-63
2023/08/07 10:07:18;;;;;;;12.40;7.00;;;;;;;;;;5040775;28;20139;-63
2023/08/07 10:09:45;;;;;;;13.45;6.90;;;;;;;;;;5041061;28;20049;-65
2023/08/07 10:12:12;;;;;;;11.88;6.72;;;;;;;;;;5042061;28;20033;-64
2023/08/07 10:14:41;;;;;;;13.35;6.82;;;;;;;;;;5038146;28;20059;-63
2023/08/07 10:17:08;;;;;;;14.43;7.90;;;;;;;;;;5037361;28;20286;-62
2023/08/07 10:19:35;;;;;;;12.38;6.95;;;;;;;;;;5036411;28;20084;-63
2023/08/07 10:22:03;;;;;;;12.70;7.18;;;;;;;;;;5042108;28;20049;-63
2023/08/07 10:24:30;;;;;;;11.63;7.55;;;;;;;;;;5037918;28;20037;-63
2023/08/07 10:26:58;;;;;;;11.82;7.00;;;;;;;;;;5018862;28;20057;-62
2023/08/07 10:29:25;;;;;;;13.05;7.20;;;;;;;;;;5018888;28;20596;-64
2023/08/07 10:31:52;;;;;;;12.88;7.40;;;;;;;;;;5021173;28;20834;-62
2023/08/07 10:34:19;;;;;;;12.13;7.45;;;;;;;;;;5020144;28;20557;-63
2023/08/07 10:36:45;;;;;;;14.35;7.43;;;;;;;;;;5019593;28;20072;-64
2023/08/07 10:39:13;;;;;;;13.77;8.00;;;;;;;;;;5017327;28;20041;-62
2023/08/07 10:41:40;;;;;;;11.85;7.22;;;;;;;;;;5018203;28;20474;-63
2023/08/07 10:44:18;;;;;;;12.07;7.25;;;;;;;;;;5014410;28;20125;-65
2023/08/07 10:46:54;;;;;;;13.00;8.02;;;;;;;;;;5041637;28;20049;-64
2023/08/07 10:49:33;;;;;;;13.65;7.78;;;;;;;;;;5042058;28;20041;-63
2023/08/07 10:52:03;;;;;;;13.05;7.57;;;;;;;;;;5042153;28;20510;-63
2023/08/07 10:54:30;;;;;;;14.75;8.60;;;;;;;;;;5058324;28;20125;-64
2023/08/07 10:56:56;;;;;;;13.23;7.47;;;;;;;;;;5043081;28;20043;-64
2023/08/07 10:59:23;;;;;;;14.07;8.02;;;;;;;;;;5056719;28;20032;-62
2023/08/07 11:01:54;;;;;;;13.90;8.27;;;;;;;;;;5034778;28;20037;-63
2023/08/07 11:04:25;;;;;;;14.05;8.50;;;;;;;;;;5042405;28;20068;-64
2023/08/07 11:06:52;;;;;;;16.45;9.27;;;;;;;;;;5016367;28;20077;-63
2023/08/07 11:09:19;;;;;;;15.77;8.55;;;;;;;;;;5015042;28;20033;-62
2023/08/07 11:11:47;;;;;;;16.50;9.30;;;;;;;;;;5007682;28;20045;-62
2023/08/07 11:14:15;;;;;;;14.73;8.50;;;;;;;;;;5017690;28;21028;-62
2023/08/07 11:16:41;;;;;;;15.48;9.23;;;;;;;;;;5016491;28;20429;-62
2023/08/07 11:19:08;;;;;;;16.23;9.23;;;;;;;;;;5017057;28;20038;-63
2023/08/07 11:21:36;;;;;;;15.00;8.95;;;;;;;;;;5018590;28;20045;-64
2023/08/07 11:24:03;;;;;;;14.30;8.65;;;;;;;;;;5017945;28;20053;-62
2023/08/07 11:26:30;;;;;;;14.23;9.00;;;;;;;;;;5016929;28;20049;-63
2023/08/07 11:28:57;;;;;;;14.93;8.65;;;;;;;;;;5016712;28;20095;-63
2023/08/07 11:31:25;;;;;;;17.25;10.00;;;;;;;;;;5016739;28;21034;-63
2023/08/07 11:33:52;;;;;;;17.00;9.95;;;;;;;;;;5017161;28;20041;-63
2023/08/07 11:36:18;;;;;;;18.35;10.23;;;;;;;;;;5010976;28;20072;-62
2023/08/07 11:38:45;;;;;;;20.02;9.77;;;;;;;;;;5015125;28;20041;-63
2023/08/07 11:41:13;;;;;;;17.30;9.88;;;;;;;;;;5017927;28;20038;-62
2023/08/07 11:43:39;;;;;;;20.45;10.85;;;;;;;;;;5021270;28;20068;-63
2023/08/07 11:46:07;;;;;;;17.80;10.50;;;;;;;;;;5041517;28;20085;-63
2023/08/07 11:48:35;;;;;;;18.75;11.00;;;;;;;;;;5040601;28;20053;-60
2023/08/07 11:51:02;;;;;;;19.48;11.60;;;;;;;;;;5043405;28;20090;-64
2023/08/07 11:53:30;;;;;;;20.17;9.95;;;;;;;;;;5038881;28;20063;-62
2023/08/07 11:55:58;;;;;;;18.40;10.85;;;;;;;;;;5044691;28;20118;-60
2023/08/07 11:58:28;;;;;;;21.17;11.18;;;;;;;;;;5043902;28;20119;-62
2023/08/07 12:00:55;;;;;;;17.70;10.13;;;;;;;;;;5045208;28;20049;-62
2023/08/07 12:03:40;;;;;;;16.75;11.25;;;;;;;;;;5044860;28;20681;-61
2023/08/07 12:06:07;;;;;;;18.55;10.77;;;;;;;;;;5041123;28;20053;-64
2023/08/07 12:08:35;;;;;;;19.70;10.80;;;;;;;;;;5032761;28;20044;-63
2023/08/07 12:11:03;;;;;;;17.80;10.25;;;;;;;;;;5044486;28;20052;-63
2023/08/07 12:13:30;;;;;;;17.83;10.35;;;;;;;;;;5043964;28;20047;-61
2023/08/07 12:15:57;;;;;;;17.20;9.98;;;;;;;;;;5042801;28;20041;-62
2023/08/07 12:18:27;;;;;;;17.55;10.13;;;;;;;;;;5041209;28;20032;-58
2023/08/07 12:20:57;;;;;;;16.10;9.93;;;;;;;;;;5043919;28;20037;-61
2023/08/07 12:23:24;;;;;;;17.95;10.48;;;;;;;;;;5041796;28;20065;-60
2023/08/07 12:25:52;;;;;;;18.02;10.70;;;;;;;;;;5039860;28;20508;-61
2023/08/07 12:28:19;;;;;;;17.75;10.32;;;;;;;;;;5037934;28;20132;-63
2023/08/07 12:30:46;;;;;;;19.40;10.48;;;;;;;;;;5039650;28;20044;-61
2023/08/07 12:33:13;;;;;;;17.80;11.30;;;;;;;;;;5041287;28;20029;-61
2023/08/07 12:35:40;;;;;;;18.65;10.10;;;;;;;;;;5039554;28;20122;-63
2023/08/07 12:38:06;;;;;;;19.17;10.95;;;;;;;;;;5040724;28;20045;-62
2023/08/07 12:40:36;;;;;;;19.73;11.68;;;;;;;;;;5038900;28;20045;-63
2023/08/07 12:43:02;;;;;;;19.52;11.32;;;;;;;;;;5041311;28;20516;-62
2023/08/07 12:45:29;;;;;;;20.42;12.07;;;;;;;;;;5032156;28;20036;-65
2023/08/07 12:47:56;;;;;;;19.30;11.52;;;;;;;;;;5040039;28;20048;-62
2023/08/07 12:50:23;;;;;;;17.83;11.18;;;;;;;;;;5037150;28;20045;-61
2023/08/07 12:52:49;;;;;;;18.48;11.60;;;;;;;;;;5041720;28;20037;-63
2023/08/07 12:55:16;;;;;;;21.35;11.43;;;;;;;;;;5040034;28;20082;-62
2023/08/07 12:57:43;;;;;;;18.92;11.25;;;;;;;;;;5038958;28;20167;-64
2023/08/07 13:00:12;;;;;;;17.50;11.02;;;;;;;;;;5041858;28;20029;-62
2023/08/07 13:02:40;;;;;;;19.65;12.25;;;;;;;;;;5040253;28;20075;-64
2023/08/07 13:05:08;;;;;;;23.13;11.93;;;;;;;;;;5041048;28;20128;-65
2023/08/07 13:07:35;;;;;;;17.98;12.00;;;;;;;;;;5039820;28;20045;-62
2023/08/07 13:10:02;;;;;;;21.45;12.02;;;;;;;;;;5041012;28;20060;-61
2023/08/07 13:12:28;;;;;;;19.15;11.73;;;;;;;;;;5041676;28;20037;-61
2023/08/07 13:14:55;;;;;;;19.42;12.13;;;;;;;;;;5035751;28;20029;-62
2023/08/07 13:17:21;;;;;;;19.65;11.55;;;;;;;;;;5041937;28;20525;-63
2023/08/07 13:19:48;;;;;;;18.95;12.75;;;;;;;;;;5041444;28;20044;-63
2023/08/07 13:22:14;;;;;;;22.45;12.80;;;;;;;;;;5040160;28;20041;-65
2023/08/07 13:24:41;;;;;;;21.67;10.98;;;;;;;;;;5040963;28;20067;-61
2023/08/07 13:27:08;;;;;;;21.48;12.10;;;;;;;;;;5042550;28;20155;-65
2023/08/07 13:29:35;;;;;;;20.13;12.15;;;;;;;;;;5029768;28;20044;-66
2023/08/07 13:32:09;;;;;;;20.65;11.25;;;;;;;;;;5042166;28;20044;-64
2023/08/07 13:34:38;;;;;;;19.65;11.63;;;;;;;;;;5039504;28;20043;-62
2023/08/07 13:37:06;;;;;;;18.42;11.57;;;;;;;;;;5040232;28;20044;-64
2023/08/07 13:39:33;;;;;;;20.05;12.13;;;;;;;;;;5043390;28;20037;-61
2023/08/07 13:42:00;;;;;;;20.63;12.25;;;;;;;;;;5040815;28;20112;-60
2023/08/07 13:44:27;;;;;;;23.27;13.85;;;;;;;;;;5038234;28;20115;-66
2023/08/07 13:46:53;;;;;;;19.95;12.30;;;;;;;;;;5035285;28;20049;-65
2023/08/07 13:49:20;;;;;;;18.75;11.73;;;;;;;;;;5038127;28;20041;-64
2023/08/07 13:52:41;;;;;;;23.15;11.75;;;;;;;;;;5053636;27;20891;-63
2023/08/07 13:55:09;;;;;;;20.02;12.93;;;;;;;;;;5053681;28;20044;-64
2023/08/07 13:57:55;;;;;;;20.30;11.93;;;;;;;;;;5010782;28;20456;-65
2023/08/07 14:00:22;;;;;;;21.45;12.50;;;;;;;;;;5011101;28;20033;-62
2023/08/07 14:02:48;;;;;;;21.08;12.18;;;;;;;;;;5012428;28;20048;-64
2023/08/07 14:05:15;;;;;;;24.35;13.18;;;;;;;;;;5012748;28;20191;-64
2023/08/07 14:07:42;;;;;;;21.08;12.82;;;;;;;;;;5012468;28;20049;-64
2023/08/07 14:10:08;;;;;;;21.52;12.05;;;;;;;;;;5009145;28;20700;-64
2023/08/07 14:12:35;;;;;;;24.55;12.90;;;;;;;;;;5010411;28;20061;-65
2023/08/07 14:15:02;;;;;;;20.25;12.38;;;;;;;;;;5011659;28;20037;-65
2023/08/07 14:17:28;;;;;;;22.08;12.75;;;;;;;;;;4999650;28;20060;-65
2023/08/07 14:19:55;;;;;;;19.80;12.25;;;;;;;;;;5009920;28;20033;-65
2023/08/07 14:22:21;;;;;;;18.38;11.30;;;;;;;;;;5013887;28;20049;-65
2023/08/07 14:24:48;;;;;;;16.10;9.88;;;;;;;;;;5012171;28;20046;-64
2023/08/07 14:27:15;;;;;;;17.27;9.70;;;;;;;;;;5013273;28;20521;-65
2023/08/07 14:29:41;;;;;;;19.02;10.77;;;;;;;;;;5010897;28;20041;-64
2023/08/07 14:32:08;;;;;;;16.30;9.70;;;;;;;;;;5012928;28;20065;-65
2023/08/07 14:34:34;;;;;;;17.73;10.40;;;;;;;;;;5016622;28;20037;-64
2023/08/07 14:37:01;;;;;;;16.10;9.65;;;;;;;;;;5034290;28;20519;-64
2023/08/07 14:39:28;;;;;;;15.25;10.52;;;;;;;;;;5031449;28;20854;-65
2023/08/07 14:41:55;;;;;;;14.20;9.57;;;;;;;;;;5032221;28;20069;-65
2023/08/07 14:44:21;;;;;;;18.02;11.02;;;;;;;;;;5031140;28;20226;-68
2023/08/07 14:46:48;;;;;;;14.30;9.23;;;;;;;;;;5031134;28;20029;-65
2023/08/07 14:49:15;;;;;;;17.75;10.38;;;;;;;;;;5029736;28;20033;-66
2023/08/07 14:51:41;;;;;;;17.95;9.80;;;;;;;;;;5030629;28;20064;-63
2023/08/07 14:54:08;;;;;;;13.68;9.25;;;;;;;;;;5032225;28;20063;-67
2023/08/07 14:56:34;;;;;;;15.98;9.82;;;;;;;;;;5032150;28;20044;-65
2023/08/07 14:59:01;;;;;;;14.55;8.98;;;;;;;;;;5047463;28;21696;-65
2023/08/07 15:01:28;;;;;;;16.00;9.88;;;;;;;;;;5032724;28;20052;-65
2023/08/07 15:03:54;;;;;;;16.80;10.38;;;;;;;;;;5036111;28;20044;-65
2023/08/07 15:06:21;;;;;;;15.55;10.10;;;;;;;;;;5014921;28;20041;-67
2023/08/07 15:08:48;;;;;;;18.05;9.93;;;;;;;;;;5019328;28;20038;-64
2023/08/07 15:11:15;;;;;;;17.80;10.55;;;;;;;;;;5022932;28;20107;-66
2023/08/07 15:13:42;;;;;;;16.10;9.80;;;;;;;;;;5020417;28;20030;-65
2023/08/07 15:16:08;;;;;;;20.27;10.10;;;;;;;;;;5021972;28;20045;-64
2023/08/07 15:18:35;;;;;;;16.45;9.98;;;;;;;;;;5020569;28;20029;-66
2023/08/07 15:21:02;;;;;;;13.90;9.30;;;;;;;;;;5023107;28;20029;-66
2023/08/07 15:23:30;;;;;;;16.95;10.50;;;;;;;;;;5010065;28;20147;-65
2023/08/07 15:25:57;;;;;;;14.55;9.80;;;;;;;;;;5019612;28;20059;-65
2023/08/07 15:28:24;;;;;;;18.73;10.57;;;;;;;;;;5015832;28;20196;-65
2023/08/07 15:30:51;;;;;;;15.85;9.63;;;;;;;;;;5016604;28;20073;-64
2023/08/07 15:33:18;;;;;;;16.38;9.23;;;;;;;;;;5018887;28;20040;-64
2023/08/07 15:35:45;;;;;;;14.85;9.95;;;;;;;;;;5018714;28;20493;-64
2023/08/07 15:38:12;;;;;;;15.77;9.90;;;;;;;;;;5021843;28;20042;-64
2023/08/07 15:40:42;;;;;;;14.25;9.73;;;;;;;;;;5025135;28;20037;-64
2023/08/07 15:43:09;;;;;;;16.73;9.65;;;;;;;;;;5021125;28;20053;-65
2023/08/07 15:45:36;;;;;;;15.48;9.20;;;;;;;;;;5019698;28;20065;-64
2023/08/07 15:48:04;;;;;;;17.05;9.30;;;;;;;;;;5021325;28;20059;-67
2023/08/07 15:50:36;;;;;;;15.13;9.65;;;;;;;;;;5036463;28;20421;-63
2023/08/07 15:53:03;;;;;;;13.03;8.80;;;;;;;;;;5035561;28;20572;-64
2023/08/07 15:55:31;;;;;;;15.38;8.63;;;;;;;;;;5037699;28;20706;-64
2023/08/07 15:57:58;;;;;;;14.80;8.57;;;;;;;;;;5037327;28;20133;-67
2023/08/07 16:00:24;;;;;;;11.55;8.18;;;;;;;;;;5038858;28;20033;-64
2023/08/07 16:02:51;;;;;;;12.32;8.10;;;;;;;;;;5037061;28;20401;-65
2023/08/07 16:05:20;;;;;;;12.40;8.32;;;;;;;;;;5037393;28;20090;-63
2023/08/07 16:07:49;;;;;;;10.55;7.35;;;;;;;;;;5040967;28;20056;-64
2023/08/07 16:10:16;;;;;;;11.43;7.72;;;;;;;;;;5037227;28;20063;-65
2023/08/07 16:12:43;;;;;;;12.82;8.00;;;;;;;;;;5034776;28;20116;-65
2023/08/07 16:15:09;;;;;;;12.32;7.22;;;;;;;;;;5034606;28;20529;-65
2023/08/07 16:17:36;;;;;;;11.63;7.78;;;;;;;;;;5036504;28;20791;-65
2023/08/07 16:20:02;;;;;;;11.75;7.78;;;;;;;;;;5036777;28;20041;-63
2023/08/07 16:22:29;;;;;;;11.23;7.28;;;;;;;;;;5037268;28;20041;-64
2023/08/07 16:24:56;;;;;;;14.57;8.45;;;;;;;;;;5036162;28;20118;-65
2023/08/07 16:27:22;;;;;;;11.48;7.18;;;;;;;;;;5037184;28;20404;-63
2023/08/07 16:29:49;;;;;;;13.40;7.30;;;;;;;;;;5035912;28;20037;-65
2023/08/07 16:32:16;;;;;;;11.27;7.28;;;;;;;;;;5036344;28;20775;-64
2023/08/07 16:34:42;;;;;;;11.85;7.22;;;;;;;;;;5036487;28;20090;-64
2023/08/07 16:37:09;;;;;;;13.82;8.73;;;;;;;;;;5038353;28;20040;-61